Portada
METAR-TAF:

METAR-TAF

Aeroports :

Kastamonu, Turquia

latitud: 41-19-01N, longitud: 33-47-46E, altitud: 1073 m

Observació

L'informe es va fer fa 5 hores i 27 minuts, a les 12:50 UTC
Vent 3 kt amb direcció variable
Temperatura 9°C
Humitat 34%
Pressió 1026 hPa
Visibilitat 10 km o més
Núvols disperses a una alçada de 3000 ft

METAR: LTAL 241250Z VRB03KT 9999 SCT030 09/M06 Q1026

Hora: 21:17 (18:17 UTC)

Pronòstic

L'informe es va fer fa 4 hores i 37 minuts, a les 13:40 UTC
Pronòstic vàlid del 24 a les 15 UTC al 24 a les 24 UTC
Vent 2 kt amb direcció variable
Visibilitat 10 km o més
Núvols disperses a una alçada de 3000 ft

TAF: LTAL 241340Z 2415/2424 VRB02KT 9999 SCT030

Observacions i pronòstics meteorològics de més de 4000 aeroports (METAR i TAF).

Les estacions disponibles són els punts grocs i vermells al mapa.

Posi el ratolí al punt desitjat per veure el nom de l'estació.

Feu clic per veure les observacions i els pronòstics meteorològics.

Per canviar el mapa: feu clic els botons verds amb una creu de color negre per apropar; al botó verd amb un guió per allunyar la imatge; o en les fletxes verdes per a mapes adjacents.


METAR-TAF: